createdAt,value
2023-01-13T00:01:15.575Z,1.07
2023-01-13T00:03:43.266Z,0.90
2023-01-13T00:06:13.296Z,0.87
2023-01-13T00:08:40.090Z,1.10
2023-01-13T00:11:06.747Z,1.93
2023-01-13T00:13:35.453Z,1.70
2023-01-13T00:16:07.284Z,1.63
2023-01-13T00:18:34.856Z,2.23
2023-01-13T00:21:06.755Z,0.80
2023-01-13T00:23:34.806Z,1.07
2023-01-13T00:26:04.463Z,1.93
2023-01-13T00:28:31.130Z,2.03
2023-01-13T00:31:08.726Z,3.13
2023-01-13T00:33:35.941Z,2.03
2023-01-13T00:36:03.974Z,0.80
2023-01-13T00:38:34.328Z,1.03
2023-01-13T00:41:12.441Z,1.20
2023-01-13T00:43:39.182Z,3.27
2023-01-13T00:46:07.549Z,0.77
2023-01-13T00:48:34.429Z,0.93
2023-01-13T00:51:12.133Z,2.57
2023-01-13T00:53:43.158Z,3.50
2023-01-13T00:56:18.223Z,2.40
2023-01-13T00:58:47.076Z,2.70
2023-01-13T01:01:19.670Z,2.67
2023-01-13T01:03:51.593Z,4.57
2023-01-13T01:06:25.864Z,4.43
2023-01-13T01:08:57.867Z,3.67
2023-01-13T01:11:27.446Z,4.03
2023-01-13T01:13:56.622Z,3.40
2023-01-13T01:16:24.998Z,4.37
2023-01-13T01:18:52.840Z,5.20
2023-01-13T01:21:20.613Z,5.43
2023-01-13T01:23:47.271Z,4.50
2023-01-13T01:26:21.950Z,7.57
2023-01-13T01:28:48.974Z,6.47
2023-01-13T01:31:21.678Z,4.60
2023-01-13T01:33:49.421Z,6.37
2023-01-13T01:36:17.753Z,9.00
2023-01-13T01:38:44.695Z,6.03
2023-01-13T01:41:23.177Z,8.77
2023-01-13T01:44:00.441Z,5.90
2023-01-13T01:46:30.115Z,6.37
2023-01-13T01:49:07.497Z,9.50
2023-01-13T01:51:43.012Z,7.83
2023-01-13T01:54:11.605Z,8.13
2023-01-13T01:56:40.338Z,9.37
2023-01-13T01:59:07.108Z,5.83
2023-01-13T02:01:34.334Z,5.10
2023-01-13T02:04:11.991Z,8.67
2023-01-13T02:06:38.966Z,6.97
2023-01-13T02:09:05.545Z,9.50
2023-01-13T02:11:53.248Z,9.93
2023-01-13T02:14:22.673Z,10.07
2023-01-13T02:16:57.346Z,9.67
2023-01-13T02:19:47.474Z,13.77
2023-01-13T02:22:31.798Z,14.40
2023-01-13T02:25:13.256Z,12.97
2023-01-13T02:28:04.599Z,13.37
2023-01-13T02:31:22.200Z,11.23
2023-01-13T02:33:58.931Z,9.93
2023-01-13T02:36:28.472Z,13.17
2023-01-13T02:38:58.749Z,16.83
2023-01-13T02:41:57.668Z,13.20
2023-01-13T02:44:33.119Z,10.90
2023-01-13T02:47:22.802Z,13.80
2023-01-13T02:49:53.725Z,12.47
2023-01-13T02:52:30.249Z,12.07
2023-01-13T02:55:18.409Z,10.77
2023-01-13T02:57:45.277Z,13.67
2023-01-13T03:00:13.417Z,11.47
2023-01-13T03:02:40.264Z,9.90
2023-01-13T03:05:07.144Z,14.23
2023-01-13T03:07:55.867Z,11.80
2023-01-13T03:10:22.965Z,6.97
2023-01-13T03:13:04.567Z,9.53
2023-01-13T03:15:40.341Z,5.80
2023-01-13T03:18:14.794Z,6.77
2023-01-13T03:20:57.012Z,11.87
2023-01-13T03:23:51.160Z,8.27
2023-01-13T03:26:28.021Z,5.87
2023-01-13T03:29:28.375Z,4.80
2023-01-13T03:32:29.069Z,7.33
2023-01-13T03:34:56.330Z,5.90
2023-01-13T03:37:28.583Z,6.73
2023-01-13T03:40:00.624Z,6.67
2023-01-13T03:42:29.124Z,7.20
2023-01-13T03:45:13.171Z,12.03
2023-01-13T03:47:55.142Z,11.47
2023-01-13T03:50:36.195Z,10.83
2023-01-13T03:53:03.735Z,9.53
2023-01-13T03:55:34.558Z,11.93
2023-01-13T03:58:07.743Z,8.33
2023-01-13T04:00:38.903Z,11.53
2023-01-13T04:03:08.216Z,7.07
2023-01-13T04:05:41.508Z,4.40
2023-01-13T04:08:18.102Z,6.87
2023-01-13T04:10:55.931Z,9.37
2023-01-13T04:13:24.528Z,8.03
2023-01-13T04:15:52.986Z,11.20
2023-01-13T04:18:28.103Z,9.77
2023-01-13T04:20:57.526Z,7.23
2023-01-13T04:23:24.734Z,9.67
2023-01-13T04:25:51.841Z,5.60
2023-01-13T04:28:18.633Z,7.53
2023-01-13T04:30:46.126Z,12.47
2023-01-13T04:33:13.064Z,9.40
2023-01-13T04:35:39.819Z,7.60
2023-01-13T04:38:12.437Z,6.90
2023-01-13T04:40:39.671Z,6.77
2023-01-13T04:43:06.375Z,10.30
2023-01-13T04:45:33.100Z,10.30
2023-01-13T04:48:00.221Z,12.23
2023-01-13T04:50:26.739Z,10.87
2023-01-13T04:52:54.714Z,8.17
2023-01-13T04:55:22.884Z,8.60
2023-01-13T04:57:49.425Z,6.37
2023-01-13T05:00:18.254Z,7.13
2023-01-13T05:02:44.902Z,9.10
2023-01-13T05:05:11.795Z,8.60
2023-01-13T05:07:38.465Z,12.50
2023-01-13T05:10:05.780Z,12.30
2023-01-13T05:12:51.030Z,12.60
2023-01-13T05:15:36.798Z,7.57
2023-01-13T05:18:03.689Z,9.37
2023-01-13T05:20:30.565Z,12.93
2023-01-13T05:23:15.639Z,8.57
2023-01-13T05:25:44.561Z,12.57
2023-01-13T05:28:11.232Z,13.93
2023-01-13T05:30:42.534Z,10.67
2023-01-13T05:33:13.391Z,13.03
2023-01-13T05:35:41.371Z,15.33
2023-01-13T05:38:08.271Z,17.13
2023-01-13T05:40:54.130Z,14.80
2023-01-13T05:43:21.866Z,11.83
2023-01-13T05:46:01.883Z,11.40
2023-01-13T05:48:31.377Z,16.90
2023-01-13T05:50:58.159Z,13.00
2023-01-13T05:53:25.330Z,14.43
2023-01-13T05:55:52.162Z,13.43
2023-01-13T05:58:20.345Z,13.70
2023-01-13T06:00:47.401Z,7.83
2023-01-13T06:03:14.641Z,10.53
2023-01-13T06:05:45.511Z,13.53
2023-01-13T06:08:12.068Z,9.97
2023-01-13T06:10:38.700Z,9.10
2023-01-13T06:13:06.634Z,11.17
2023-01-13T06:15:33.248Z,8.30
2023-01-13T06:18:02.930Z,9.87
2023-01-13T06:20:29.794Z,10.83
2023-01-13T06:22:56.416Z,13.50
2023-01-13T06:25:26.518Z,13.97
2023-01-13T06:27:54.858Z,15.03
2023-01-13T06:30:21.557Z,11.87
2023-01-13T06:32:52.643Z,11.30
2023-01-13T06:35:24.062Z,13.07
2023-01-13T06:37:53.271Z,10.87
2023-01-13T06:40:19.846Z,16.37
2023-01-13T06:43:05.214Z,14.10
2023-01-13T06:45:31.981Z,9.37
2023-01-13T06:47:59.967Z,14.40
2023-01-13T06:50:27.388Z,12.03
2023-01-13T06:52:53.998Z,15.97
2023-01-13T06:55:20.675Z,12.53
2023-01-13T06:57:55.305Z,11.47
2023-01-13T07:00:22.611Z,11.83
2023-01-13T07:02:49.321Z,10.03
2023-01-13T07:05:16.907Z,13.03
2023-01-13T07:07:43.719Z,14.73
2023-01-13T07:10:13.187Z,11.90
2023-01-13T07:13:00.074Z,14.83
2023-01-13T07:15:27.125Z,10.00
2023-01-13T07:17:53.772Z,12.40
2023-01-13T07:20:20.323Z,9.93
2023-01-13T07:22:46.939Z,7.27
2023-01-13T07:25:13.636Z,7.47
2023-01-13T07:27:40.239Z,17.63
2023-01-13T07:30:10.315Z,17.70
2023-01-13T07:32:36.801Z,15.27
2023-01-13T07:35:05.480Z,16.23
2023-01-13T07:37:34.486Z,15.67
2023-01-13T07:40:01.769Z,7.20
2023-01-13T07:42:46.925Z,11.07
2023-01-13T07:45:13.540Z,11.27
2023-01-13T07:47:40.736Z,11.07
2023-01-13T07:50:08.466Z,12.40
2023-01-13T07:52:35.179Z,12.27
2023-01-13T07:55:01.695Z,11.83
2023-01-13T07:57:28.966Z,10.23
2023-01-13T07:59:55.772Z,16.87
2023-01-13T08:02:22.497Z,7.90
2023-01-13T08:04:49.254Z,13.17
2023-01-13T08:07:17.023Z,11.07
2023-01-13T08:09:43.737Z,10.20
2023-01-13T08:12:28.807Z,12.70
2023-01-13T08:14:55.869Z,10.93
2023-01-13T08:17:22.548Z,13.63
2023-01-13T08:19:49.276Z,11.97
2023-01-13T08:22:15.879Z,8.17
2023-01-13T08:24:42.386Z,8.60
2023-01-13T08:27:09.065Z,15.43
2023-01-13T08:29:35.572Z,20.83
2023-01-13T08:32:02.251Z,13.47
2023-01-13T08:34:28.785Z,10.77
2023-01-13T08:36:55.608Z,10.40
2023-01-13T08:39:23.716Z,6.57
2023-01-13T08:41:56.275Z,10.77
2023-01-13T08:44:28.177Z,15.30
2023-01-13T08:46:55.273Z,9.23
2023-01-13T08:49:22.389Z,12.37
2023-01-13T08:51:49.551Z,13.30
2023-01-13T08:54:16.857Z,13.33
2023-01-13T08:56:44.511Z,11.83
2023-01-13T08:59:16.275Z,16.27
2023-01-13T09:01:43.203Z,14.40
2023-01-13T09:04:22.108Z,11.80
2023-01-13T09:06:49.459Z,18.70
2023-01-13T09:09:16.292Z,18.43
2023-01-13T09:12:04.054Z,12.57
2023-01-13T09:14:32.721Z,10.77
2023-01-13T09:17:00.779Z,14.00
2023-01-13T09:19:29.028Z,11.33
2023-01-13T09:21:59.068Z,11.10
2023-01-13T09:24:26.226Z,14.10
2023-01-13T09:26:53.981Z,14.90
2023-01-13T09:29:20.715Z,10.67
2023-01-13T09:31:47.387Z,9.80
2023-01-13T09:34:35.363Z,14.13
2023-01-13T09:37:02.277Z,12.90
2023-01-13T09:39:28.836Z,12.90
2023-01-13T09:42:15.856Z,12.80
2023-01-13T09:45:05.394Z,14.73
2023-01-13T09:47:51.909Z,18.13
2023-01-13T09:50:22.172Z,15.90
2023-01-13T09:52:48.681Z,15.83
2023-01-13T09:55:18.497Z,24.93
2023-01-13T09:57:45.118Z,11.33
2023-01-13T10:00:14.301Z,10.90
2023-01-13T10:02:59.628Z,14.87
2023-01-13T10:05:32.418Z,14.63
2023-01-13T10:08:05.442Z,17.50
2023-01-13T10:10:43.323Z,14.57
2023-01-13T10:13:22.069Z,16.13
2023-01-13T10:15:56.100Z,13.97
2023-01-13T10:18:33.429Z,24.17
2023-01-13T10:21:15.007Z,14.17
2023-01-13T10:23:41.506Z,19.43
2023-01-13T10:26:25.297Z,15.53
2023-01-13T10:28:53.481Z,18.03
2023-01-13T10:31:20.970Z,13.60
2023-01-13T10:33:47.837Z,21.73
2023-01-13T10:36:21.415Z,21.53
2023-01-13T10:38:49.827Z,14.80
2023-01-13T10:41:16.300Z,16.47
2023-01-13T10:43:58.356Z,21.00
2023-01-13T10:46:24.937Z,13.27
2023-01-13T10:48:52.946Z,19.67
2023-01-13T10:51:31.090Z,20.47
2023-01-13T10:54:02.084Z,16.60
2023-01-13T10:56:33.728Z,16.93
2023-01-13T10:59:27.040Z,25.73
2023-01-13T11:01:59.781Z,12.90
2023-01-13T11:04:26.950Z,16.30
2023-01-13T11:06:53.883Z,19.90
2023-01-13T11:09:22.501Z,12.63
2023-01-13T11:11:55.683Z,22.80
2023-01-13T11:14:44.091Z,13.73
2023-01-13T11:17:27.794Z,16.13
2023-01-13T11:20:00.448Z,16.30
2023-01-13T11:22:34.379Z,19.67
2023-01-13T11:25:03.479Z,16.93
2023-01-13T11:27:43.864Z,15.23
2023-01-13T11:30:26.792Z,16.73
2023-01-13T11:33:11.809Z,19.40
2023-01-13T11:35:42.522Z,12.77
2023-01-13T11:38:42.666Z,22.00
2023-01-13T11:41:19.062Z,17.80
2023-01-13T11:44:00.451Z,13.47
2023-01-13T11:46:28.168Z,15.67
2023-01-13T11:48:56.621Z,14.60
2023-01-13T11:51:28.243Z,13.30
2023-01-13T11:53:57.849Z,11.63
2023-01-13T11:56:39.611Z,15.33
2023-01-13T11:59:34.027Z,17.23
2023-01-13T12:02:06.598Z,18.70
2023-01-13T12:04:36.033Z,14.77
2023-01-13T12:07:13.746Z,21.30
2023-01-13T12:09:53.678Z,16.43
2023-01-13T12:13:02.132Z,17.77
2023-01-13T12:15:52.171Z,13.93
2023-01-13T12:18:43.595Z,20.43
2023-01-13T12:21:22.569Z,19.43
2023-01-13T12:24:05.281Z,12.60
2023-01-13T12:26:36.033Z,21.40
2023-01-13T12:29:15.608Z,14.80
2023-01-13T12:31:43.822Z,21.57
2023-01-13T12:34:39.921Z,21.70
2023-01-13T12:37:43.044Z,22.10
2023-01-13T12:40:38.865Z,12.77
2023-01-13T12:43:38.795Z,24.37
2023-01-13T12:46:25.739Z,16.57
2023-01-13T12:48:57.271Z,19.23
2023-01-13T12:51:26.777Z,22.97
2023-01-13T12:53:54.815Z,15.77
2023-01-13T12:56:44.612Z,14.90
2023-01-13T12:59:17.582Z,18.27
2023-01-13T13:01:48.330Z,19.53
2023-01-13T13:04:21.904Z,16.63
2023-01-13T13:06:56.299Z,18.90
2023-01-13T13:09:29.210Z,24.77
2023-01-13T13:11:58.609Z,14.60
2023-01-13T13:14:37.636Z,14.03
2023-01-13T13:17:25.383Z,10.40
2023-01-13T13:19:52.458Z,14.47
2023-01-13T13:22:42.966Z,13.00
2023-01-13T13:25:22.964Z,10.27
2023-01-13T13:28:06.190Z,11.33
2023-01-13T13:30:37.818Z,6.67
2023-01-13T13:33:13.796Z,14.90
2023-01-13T13:36:13.921Z,10.87
2023-01-13T13:39:21.937Z,17.57
2023-01-13T13:42:09.761Z,17.43
2023-01-13T13:45:00.358Z,13.80
2023-01-13T13:47:38.426Z,15.10
2023-01-13T13:50:09.193Z,10.03
2023-01-13T13:52:40.039Z,15.30
2023-01-13T13:55:17.378Z,13.40
2023-01-13T13:57:50.457Z,15.63
2023-01-13T14:00:35.558Z,16.40
2023-01-13T14:03:04.199Z,16.80
2023-01-13T14:05:35.820Z,12.43
2023-01-13T14:08:17.516Z,15.63
2023-01-13T14:10:46.274Z,12.73
2023-01-13T14:13:33.284Z,15.77
2023-01-13T14:16:03.927Z,13.17
2023-01-13T14:18:44.726Z,11.57
2023-01-13T14:21:20.128Z,16.03
2023-01-13T14:24:15.827Z,15.10
2023-01-13T14:26:42.492Z,13.77
2023-01-13T14:29:13.878Z,12.77
2023-01-13T14:31:40.813Z,16.13
2023-01-13T14:34:31.873Z,18.40
2023-01-13T14:36:55.260Z,16.27
2023-01-13T14:39:26.297Z,16.67
2023-01-13T14:41:53.398Z,14.83
2023-01-13T14:44:31.656Z,14.13
2023-01-13T14:47:00.548Z,22.07
2023-01-13T14:49:52.663Z,14.67
2023-01-13T14:52:21.150Z,16.93
2023-01-13T14:54:53.340Z,13.90
2023-01-13T14:57:28.052Z,16.00
2023-01-13T15:00:16.374Z,15.37
2023-01-13T15:02:58.283Z,16.20
2023-01-13T15:05:27.637Z,13.83
2023-01-13T15:08:06.322Z,13.73
2023-01-13T15:10:38.754Z,14.07
2023-01-13T15:13:06.848Z,18.60
2023-01-13T15:15:40.767Z,20.73
2023-01-13T15:18:13.576Z,18.17
2023-01-13T15:20:41.317Z,16.93
2023-01-13T15:23:10.921Z,23.77
2023-01-13T15:25:39.861Z,17.03
2023-01-13T15:28:07.519Z,16.83
2023-01-13T15:30:34.425Z,17.87
2023-01-13T15:33:01.022Z,12.07
2023-01-13T15:35:29.149Z,12.73
2023-01-13T15:37:56.916Z,19.73
2023-01-13T15:40:33.508Z,18.53
2023-01-13T15:43:18.341Z,19.20
2023-01-13T15:46:05.075Z,29.50
2023-01-13T15:48:32.915Z,21.43
2023-01-13T15:51:00.896Z,14.73
2023-01-13T15:53:28.617Z,13.83
2023-01-13T15:55:56.929Z,18.73
2023-01-13T15:58:28.477Z,21.37
2023-01-13T16:00:55.630Z,15.93
2023-01-13T16:03:22.373Z,12.30
2023-01-13T16:05:49.140Z,13.73
2023-01-13T16:08:20.262Z,14.73
2023-01-13T16:10:47.273Z,15.67
2023-01-13T16:13:14.529Z,17.43
2023-01-13T16:16:00.419Z,15.80
2023-01-13T16:18:27.355Z,21.67
2023-01-13T16:20:56.575Z,23.00
2023-01-13T16:23:23.177Z,17.50
2023-01-13T16:25:50.465Z,14.67
2023-01-13T16:28:24.866Z,16.50
2023-01-13T16:30:51.589Z,17.10
2023-01-13T16:33:18.193Z,14.37
2023-01-13T16:36:09.349Z,18.63
2023-01-13T16:38:31.396Z,18.93
2023-01-13T16:40:58.438Z,16.57
2023-01-13T16:43:25.084Z,12.33
2023-01-13T16:45:51.589Z,16.40
2023-01-13T16:48:20.010Z,10.60
2023-01-13T16:50:47.557Z,19.13
2023-01-13T16:53:14.202Z,18.23
2023-01-13T16:55:41.684Z,17.33
2023-01-13T16:58:20.219Z,16.50
2023-01-13T17:00:47.871Z,15.23
2023-01-13T17:03:15.503Z,11.57
2023-01-13T17:05:44.753Z,14.00
2023-01-13T17:08:17.804Z,16.80
2023-01-13T17:10:45.647Z,15.33
2023-01-13T17:13:16.253Z,15.60
2023-01-13T17:15:43.680Z,22.80
2023-01-13T17:18:11.947Z,21.63
2023-01-13T17:20:38.445Z,13.17
2023-01-13T17:23:05.134Z,14.73
2023-01-13T17:25:31.783Z,20.27
2023-01-13T17:27:58.397Z,16.97
2023-01-13T17:30:24.952Z,21.07
2023-01-13T17:32:51.453Z,16.27
2023-01-13T17:35:22.885Z,14.00
2023-01-13T17:37:52.900Z,16.27
2023-01-13T17:40:20.922Z,18.23
2023-01-13T17:42:47.572Z,12.83
2023-01-13T17:45:14.165Z,20.97
2023-01-13T17:47:40.640Z,17.87
2023-01-13T17:50:07.504Z,17.37
2023-01-13T17:52:35.195Z,18.43
2023-01-13T17:55:01.968Z,22.23
2023-01-13T17:57:28.409Z,15.90
2023-01-13T17:59:55.288Z,20.57
2023-01-13T18:02:22.094Z,14.17
2023-01-13T18:04:48.827Z,13.90
2023-01-13T18:07:15.382Z,14.57
2023-01-13T18:09:42.250Z,20.10
2023-01-13T18:12:08.835Z,14.10
2023-01-13T18:14:35.905Z,15.20
2023-01-13T18:17:02.826Z,19.47
2023-01-13T18:19:48.201Z,20.07
2023-01-13T18:22:34.175Z,13.27
2023-01-13T18:25:21.864Z,22.83
2023-01-13T18:27:48.480Z,21.70
2023-01-13T18:30:15.298Z,16.60
2023-01-13T18:32:42.204Z,12.00
2023-01-13T18:35:11.899Z,19.70
2023-01-13T18:37:40.760Z,15.17
2023-01-13T18:40:09.487Z,19.67
2023-01-13T18:43:06.295Z,22.93
2023-01-13T18:45:33.022Z,18.10
2023-01-13T18:48:01.594Z,18.53
2023-01-13T18:50:29.100Z,21.40
2023-01-13T18:52:56.408Z,13.57
2023-01-13T18:55:23.432Z,16.97
2023-01-13T18:57:50.798Z,14.97
2023-01-13T19:00:19.716Z,16.07
2023-01-13T19:02:47.411Z,16.73
2023-01-13T19:05:14.660Z,15.13
2023-01-13T19:07:43.315Z,13.23
2023-01-13T19:10:10.666Z,14.80
2023-01-13T19:12:37.276Z,16.67
2023-01-13T19:15:04.676Z,12.20
2023-01-13T19:17:33.914Z,19.77
2023-01-13T19:20:00.907Z,18.30
2023-01-13T19:22:30.581Z,17.40
2023-01-13T19:24:57.861Z,15.00
2023-01-13T19:27:25.316Z,14.50
2023-01-13T19:29:53.617Z,19.70
2023-01-13T19:32:21.972Z,13.30
2023-01-13T19:34:50.793Z,15.70
2023-01-13T19:37:17.939Z,16.77
2023-01-13T19:39:45.070Z,16.40
2023-01-13T19:42:31.132Z,15.37
2023-01-13T19:45:16.305Z,13.47
2023-01-13T19:47:45.390Z,13.00
2023-01-13T19:50:12.714Z,15.67
2023-01-13T19:52:39.492Z,17.50
2023-01-13T19:55:06.527Z,11.33
2023-01-13T19:57:33.042Z,21.70
2023-01-13T19:59:59.653Z,17.13
2023-01-13T20:02:28.919Z,10.03
2023-01-13T20:04:56.598Z,14.67
2023-01-13T20:07:24.888Z,16.80
2023-01-13T20:09:56.406Z,13.00
2023-01-13T20:12:24.335Z,16.80
2023-01-13T20:14:51.358Z,15.83
2023-01-13T20:17:20.067Z,13.43
2023-01-13T20:19:46.870Z,13.47
2023-01-13T20:22:14.058Z,13.07
2023-01-13T20:24:40.687Z,19.07
2023-01-13T20:27:07.475Z,22.10
2023-01-13T20:29:34.260Z,17.17
2023-01-13T20:32:01.232Z,20.93
2023-01-13T20:34:28.056Z,21.43
2023-01-13T20:36:54.670Z,22.53
2023-01-13T20:39:25.561Z,16.47
2023-01-13T20:42:10.784Z,15.13
2023-01-13T20:44:37.344Z,22.03
2023-01-13T20:47:04.210Z,20.33
2023-01-13T20:49:30.934Z,15.30
2023-01-13T20:51:57.896Z,10.90
2023-01-13T20:54:24.751Z,16.43
2023-01-13T20:56:51.815Z,16.00
2023-01-13T20:59:18.433Z,16.80
2023-01-13T21:01:45.127Z,16.97
2023-01-13T21:04:11.966Z,17.70
2023-01-13T21:06:38.758Z,14.83
2023-01-13T21:09:05.457Z,18.60
2023-01-13T21:11:50.418Z,17.83
2023-01-13T21:14:41.366Z,13.63
2023-01-13T21:17:32.848Z,11.10
2023-01-13T21:20:00.009Z,19.77
2023-01-13T21:22:26.882Z,19.37
2023-01-13T21:24:53.765Z,15.50
2023-01-13T21:27:21.187Z,15.13
2023-01-13T21:29:47.772Z,16.73
2023-01-13T21:32:14.363Z,19.30
2023-01-13T21:34:41.234Z,17.00
2023-01-13T21:37:07.747Z,12.80
2023-01-13T21:39:34.409Z,22.07
2023-01-13T21:42:19.722Z,21.70
2023-01-13T21:45:04.803Z,19.57
2023-01-13T21:47:49.519Z,18.47
2023-01-13T21:50:22.582Z,16.73
2023-01-13T21:52:49.990Z,16.90
2023-01-13T21:55:17.229Z,16.40
2023-01-13T21:57:48.097Z,21.30
2023-01-13T22:00:15.790Z,19.33
2023-01-13T22:02:43.418Z,18.87
2023-01-13T22:05:12.301Z,14.37
2023-01-13T22:07:40.126Z,18.07
2023-01-13T22:10:09.775Z,14.10
2023-01-13T22:12:36.495Z,16.33
2023-01-13T22:15:04.817Z,15.33
2023-01-13T22:17:31.855Z,21.83
2023-01-13T22:20:00.134Z,15.80
2023-01-13T22:22:27.646Z,16.13
2023-01-13T22:24:54.516Z,17.80
2023-01-13T22:27:24.130Z,16.23
2023-01-13T22:29:52.223Z,20.23
2023-01-13T22:32:20.585Z,23.43
2023-01-13T22:34:48.048Z,21.23
2023-01-13T22:37:14.908Z,20.07
2023-01-13T22:39:41.604Z,20.67
2023-01-13T22:42:10.168Z,16.87
2023-01-13T22:44:36.693Z,24.67
2023-01-13T22:47:03.584Z,23.03
2023-01-13T22:49:30.336Z,17.60
2023-01-13T22:51:56.932Z,15.53
2023-01-13T22:54:23.684Z,26.83
2023-01-13T22:56:50.308Z,19.07
2023-01-13T22:59:17.013Z,17.10
2023-01-13T23:01:43.799Z,21.97
2023-01-13T23:04:13.450Z,18.57
2023-01-13T23:06:40.337Z,18.00
2023-01-13T23:09:08.849Z,25.13
2023-01-13T23:11:35.934Z,17.00
2023-01-13T23:14:05.587Z,19.63
2023-01-13T23:16:37.431Z,24.47
2023-01-13T23:19:05.427Z,21.40
2023-01-13T23:21:36.026Z,25.07
2023-01-13T23:24:04.569Z,23.10
2023-01-13T23:26:31.804Z,22.07
2023-01-13T23:29:03.557Z,22.17
2023-01-13T23:31:30.406Z,23.07
2023-01-13T23:33:57.319Z,27.30
2023-01-13T23:36:27.362Z,18.50
2023-01-13T23:38:54.653Z,21.43
2023-01-13T23:41:24.324Z,34.07
2023-01-13T23:43:52.762Z,30.50
2023-01-13T23:46:20.399Z,26.40
2023-01-13T23:48:47.530Z,33.20
2023-01-13T23:51:14.490Z,23.27
2023-01-13T23:53:44.480Z,19.33
2023-01-13T23:56:16.639Z,24.20
2023-01-13T23:58:43.621Z,25.97
